Terminal Aerodrome Forecast
Issued by NWS Nashville, TN

Home | Current Version | Previous Version | Text Only | Print | Product List | Glossary On
Versions: 1 2 3 4 5 6 7 8 9 10 11 12 13 14 15 16 17 18 19
000
FTUS44 KOHX 252300
TAFBNA
TAF
KBNA 252331Z 2600/2624 17009KT P6SM SCT040 BKN200
     FM261300 18012G20KT 5SM -SHRA OVC030
      TEMPO 2614/2618 2SM TSRA OVC015CB
     FM261800 19012G25KT P6SM VCTS BKN050CB=

USA.gov is the U.S. government's official web portal to all federal, state and local government web resources and services.